createdAt,value
2018-07-21T00:00:51.588Z,26.18
2018-07-21T00:03:21.475Z,26.15
2018-07-21T00:05:51.475Z,26.13
2018-07-21T00:08:21.517Z,26.10
2018-07-21T00:10:51.405Z,26.08
2018-07-21T00:13:21.469Z,26.04
2018-07-21T00:15:51.490Z,26.01
2018-07-21T00:18:21.741Z,25.97
2018-07-21T00:20:51.837Z,25.94
2018-07-21T00:23:21.796Z,25.91
2018-07-21T00:25:51.952Z,25.89
2018-07-21T00:28:21.796Z,25.85
2018-07-21T00:30:51.990Z,25.83
2018-07-21T00:33:22.276Z,25.77
2018-07-21T00:35:52.161Z,25.71
2018-07-21T00:38:22.694Z,25.71
2018-07-21T00:40:52.667Z,25.69
2018-07-21T00:43:23.143Z,25.66
2018-07-21T00:45:53.196Z,25.62
2018-07-21T00:48:23.234Z,25.59
2018-07-21T00:50:53.504Z,25.56
2018-07-21T00:53:23.707Z,25.52
2018-07-21T00:55:53.811Z,25.49
2018-07-21T00:58:23.639Z,25.44
2018-07-21T01:00:53.637Z,25.41
2018-07-21T01:03:24.190Z,25.38
2018-07-21T01:05:54.374Z,25.36
2018-07-21T01:08:24.251Z,25.32
2018-07-21T01:10:54.218Z,25.28
2018-07-21T01:13:23.998Z,25.27
2018-07-21T01:15:53.834Z,25.23
2018-07-21T01:18:23.903Z,25.21
2018-07-21T01:20:53.998Z,25.18
2018-07-21T01:23:24.005Z,25.13
2018-07-21T01:25:53.843Z,25.10
2018-07-21T01:28:23.843Z,25.04
2018-07-21T01:30:53.464Z,25.00
2018-07-21T01:33:24.126Z,24.97
2018-07-21T01:35:53.993Z,24.93
2018-07-21T01:38:23.932Z,24.89
2018-07-21T01:40:54.343Z,24.87
2018-07-21T01:43:24.417Z,24.84
2018-07-21T01:45:54.227Z,24.82
2018-07-21T01:48:24.277Z,24.79
2018-07-21T01:50:54.056Z,24.75
2018-07-21T01:53:24.199Z,24.71
2018-07-21T01:55:54.442Z,24.64
2018-07-21T01:58:24.995Z,24.60
2018-07-21T02:00:55.022Z,24.57
2018-07-21T02:03:25.259Z,24.55
2018-07-21T02:05:55.268Z,24.50
2018-07-21T02:08:25.096Z,24.47
2018-07-21T02:10:54.923Z,24.42
2018-07-21T02:13:24.767Z,24.38
2018-07-21T02:15:54.728Z,24.35
2018-07-21T02:18:25.676Z,24.32
2018-07-21T02:20:55.799Z,24.29
2018-07-21T02:23:26.001Z,24.27
2018-07-21T02:25:55.894Z,24.25
2018-07-21T02:28:25.746Z,24.23
2018-07-21T02:30:56.202Z,24.20
2018-07-21T02:33:26.708Z,24.19
2018-07-21T02:35:56.879Z,24.19
2018-07-21T02:38:26.980Z,24.18
2018-07-21T02:40:56.949Z,24.18
2018-07-21T02:43:26.831Z,24.17
2018-07-21T02:45:56.570Z,24.16
2018-07-21T02:48:26.877Z,24.16
2018-07-21T02:50:56.778Z,24.15
2018-07-21T02:53:26.726Z,24.16
2018-07-21T02:55:56.949Z,24.14
2018-07-21T02:58:26.846Z,24.12
2018-07-21T03:00:56.797Z,24.09
2018-07-21T03:03:26.778Z,24.05
2018-07-21T03:05:57.600Z,24.04
2018-07-21T03:08:27.459Z,24.01
2018-07-21T03:10:57.420Z,24.00
2018-07-21T03:13:27.407Z,24.00
2018-07-21T03:15:57.369Z,23.99
2018-07-21T03:18:27.398Z,23.98
2018-07-21T03:20:57.491Z,23.97
2018-07-21T03:23:27.696Z,23.96
2018-07-21T03:25:58.222Z,23.95
2018-07-21T03:28:28.172Z,23.94
2018-07-21T03:30:58.045Z,23.94
2018-07-21T03:33:28.017Z,23.93
2018-07-21T03:35:58.432Z,23.93
2018-07-21T03:38:28.747Z,23.92
2018-07-21T03:40:58.708Z,23.92
2018-07-21T03:43:28.566Z,23.91
2018-07-21T03:45:58.749Z,23.90
2018-07-21T03:48:29.581Z,23.91
2018-07-21T03:51:00.063Z,23.91
2018-07-21T03:53:30.181Z,23.89
2018-07-21T03:56:00.553Z,23.88
2018-07-21T03:58:30.582Z,23.88
2018-07-21T04:01:00.418Z,23.86
2018-07-21T04:03:31.027Z,23.87
2018-07-21T04:06:01.188Z,23.88
2018-07-21T04:08:31.571Z,23.90
2018-07-21T04:11:01.538Z,23.93
2018-07-21T04:13:31.674Z,23.96
2018-07-21T04:16:01.755Z,23.99
2018-07-21T04:18:31.787Z,24.00
2018-07-21T04:21:01.887Z,24.05
2018-07-21T04:23:32.143Z,24.08
2018-07-21T04:26:01.950Z,24.12
2018-07-21T04:28:32.073Z,24.16
2018-07-21T04:31:01.850Z,24.17
2018-07-21T04:33:31.771Z,24.20
2018-07-21T04:36:01.727Z,24.22
2018-07-21T04:38:31.709Z,24.24
2018-07-21T04:41:01.646Z,24.29
2018-07-21T04:43:31.884Z,24.33
2018-07-21T04:46:01.927Z,24.35
2018-07-21T04:48:31.732Z,24.38
2018-07-21T04:51:02.010Z,24.40
2018-07-21T04:53:32.166Z,24.42
2018-07-21T04:56:02.317Z,24.44
2018-07-21T04:58:32.947Z,24.50
2018-07-21T05:01:03.286Z,24.53
2018-07-21T05:03:33.439Z,24.57
2018-07-21T05:06:03.612Z,24.62
2018-07-21T05:08:33.518Z,24.67
2018-07-21T05:11:03.716Z,24.72
2018-07-21T05:13:33.648Z,24.75
2018-07-21T05:16:03.620Z,24.80
2018-07-21T05:18:34.084Z,24.84
2018-07-21T05:21:04.484Z,24.91
2018-07-21T05:23:34.510Z,24.96
2018-07-21T05:26:04.614Z,25.01
2018-07-21T05:28:34.403Z,25.06
2018-07-21T05:31:05.086Z,25.12
2018-07-21T05:33:37.880Z,25.18
2018-07-21T05:36:08.197Z,25.24
2018-07-21T05:38:38.233Z,25.30
2018-07-21T05:41:08.972Z,25.34
2018-07-21T05:43:38.770Z,25.35
2018-07-21T05:46:08.641Z,25.35
2018-07-21T05:48:38.786Z,25.36
2018-07-21T05:51:08.822Z,25.38
2018-07-21T05:53:38.854Z,25.42
2018-07-21T05:56:08.819Z,25.47
2018-07-21T05:58:38.964Z,25.51
2018-07-21T06:01:09.300Z,25.57
2018-07-21T06:03:39.300Z,25.63
2018-07-21T06:06:09.203Z,25.68
2018-07-21T06:08:40.021Z,25.71
2018-07-21T06:11:10.422Z,25.74
2018-07-21T06:13:40.652Z,25.75
2018-07-21T06:16:10.605Z,25.77
2018-07-21T06:18:40.739Z,25.75
2018-07-21T06:21:10.830Z,25.75
2018-07-21T06:23:40.715Z,25.74
2018-07-21T06:26:11.249Z,25.73
2018-07-21T06:28:41.347Z,25.73
2018-07-21T06:31:12.140Z,25.72
2018-07-21T06:33:41.988Z,25.69
2018-07-21T06:36:12.092Z,25.67
2018-07-21T06:38:42.234Z,25.65
2018-07-21T06:41:12.048Z,25.62
2018-07-21T06:43:42.645Z,25.61
2018-07-21T06:46:12.812Z,25.61
2018-07-21T06:48:42.731Z,25.59
2018-07-21T06:51:13.613Z,25.56
2018-07-21T06:53:43.653Z,25.54
2018-07-21T06:56:13.652Z,25.53
2018-07-21T06:58:43.571Z,25.51
2018-07-21T07:01:13.454Z,25.50
2018-07-21T07:03:43.196Z,25.49
2018-07-21T07:06:13.072Z,25.49
2018-07-21T07:08:44.446Z,25.47
2018-07-21T07:11:14.550Z,25.48
2018-07-21T07:13:44.588Z,25.51
2018-07-21T07:16:15.043Z,25.52
2018-07-21T07:18:45.084Z,25.58
2018-07-21T07:21:14.883Z,25.62
2018-07-21T07:23:44.782Z,25.67
2018-07-21T07:26:14.877Z,25.71
2018-07-21T07:28:44.717Z,25.77
2018-07-21T07:31:15.047Z,25.84
2018-07-21T07:33:45.024Z,25.89
2018-07-21T07:36:14.778Z,25.93
2018-07-21T07:38:44.809Z,26.00
2018-07-21T07:41:14.932Z,26.06
2018-07-21T07:43:44.907Z,26.12
2018-07-21T07:46:15.075Z,26.21
2018-07-21T07:48:45.025Z,26.28
2018-07-21T07:51:15.880Z,26.38
2018-07-21T07:53:46.427Z,26.47
2018-07-21T07:56:16.545Z,26.57
2018-07-21T07:58:46.696Z,26.63
2018-07-21T08:01:16.706Z,26.70
2018-07-21T08:03:46.933Z,26.78
2018-07-21T08:06:17.974Z,26.85
2018-07-21T08:08:47.985Z,26.93
2018-07-21T08:11:18.236Z,27.00
2018-07-21T08:13:48.210Z,27.08
2018-07-21T08:16:18.181Z,27.16
2018-07-21T08:18:48.280Z,27.23
2018-07-21T08:21:18.329Z,27.28
2018-07-21T08:23:48.196Z,27.34
2018-07-21T08:26:18.119Z,27.40
2018-07-21T08:28:48.036Z,27.48
2018-07-21T08:31:18.284Z,27.55
2018-07-21T08:33:51.214Z,27.61
2018-07-21T08:36:21.027Z,27.68
2018-07-21T08:38:50.849Z,27.74
2018-07-21T08:41:21.097Z,27.81
2018-07-21T08:43:51.131Z,27.86
2018-07-21T08:46:27.720Z,27.91
2018-07-21T08:48:57.983Z,27.95
2018-07-21T08:51:27.907Z,27.98
2018-07-21T08:53:58.105Z,28.00
2018-07-21T08:56:28.200Z,28.01
2018-07-21T08:58:58.286Z,28.02
2018-07-21T09:01:28.155Z,28.01
2018-07-21T09:03:58.400Z,28.00
2018-07-21T09:06:28.900Z,27.99
2018-07-21T09:08:58.825Z,27.99
2018-07-21T09:11:28.647Z,27.99
2018-07-21T09:13:59.260Z,28.00
2018-07-21T09:16:29.096Z,28.00
2018-07-21T09:18:58.931Z,28.01
2018-07-21T09:21:29.895Z,28.03
2018-07-21T09:24:00.586Z,28.05
2018-07-21T09:26:30.589Z,28.06
2018-07-21T09:29:00.222Z,28.06
2018-07-21T09:31:30.460Z,28.05
2018-07-21T09:34:00.434Z,28.04
2018-07-21T09:36:30.969Z,28.03
2018-07-21T09:39:00.989Z,28.02
2018-07-21T09:41:30.794Z,28.01
2018-07-21T09:44:00.775Z,27.99
2018-07-21T09:46:30.936Z,27.96
2018-07-21T09:49:00.787Z,27.97
2018-07-21T09:51:30.835Z,27.97
2018-07-21T09:54:01.088Z,28.00
2018-07-21T09:56:31.105Z,28.01
2018-07-21T09:59:01.124Z,28.04
2018-07-21T10:01:31.120Z,28.08
2018-07-21T10:04:01.217Z,28.10
2018-07-21T10:06:31.395Z,28.14
2018-07-21T10:09:01.374Z,28.14
2018-07-21T10:11:31.859Z,28.14
2018-07-21T10:14:01.960Z,28.13
2018-07-21T10:16:32.019Z,28.13
2018-07-21T10:19:01.896Z,28.11
2018-07-21T10:21:31.854Z,28.10
2018-07-21T10:24:05.902Z,28.08
2018-07-21T10:26:40.844Z,28.04
2018-07-21T10:29:13.200Z,28.04
2018-07-21T10:31:44.261Z,28.02
2018-07-21T10:34:14.175Z,28.01
2018-07-21T10:36:44.892Z,28.01
2018-07-21T10:39:15.306Z,28.01
2018-07-21T10:41:45.191Z,28.04
2018-07-21T10:44:15.118Z,28.07
2018-07-21T10:46:45.218Z,28.11
2018-07-21T10:49:15.174Z,28.15
2018-07-21T10:51:45.938Z,28.20
2018-07-21T10:54:15.915Z,28.25
2018-07-21T10:56:45.830Z,28.27
2018-07-21T10:59:16.195Z,28.29
2018-07-21T11:01:46.319Z,28.30
2018-07-21T11:04:16.138Z,28.32
2018-07-21T11:06:45.970Z,28.36
2018-07-21T11:09:16.284Z,28.41
2018-07-21T11:11:46.908Z,28.46
2018-07-21T11:14:17.062Z,28.49
2018-07-21T11:16:47.084Z,28.51
2018-07-21T11:19:16.905Z,28.55
2018-07-21T11:21:46.677Z,28.59
2018-07-21T11:24:16.637Z,28.63
2018-07-21T11:26:46.742Z,28.70
2018-07-21T11:29:16.866Z,28.81
2018-07-21T11:31:47.044Z,28.93
2018-07-21T11:34:17.405Z,29.06
2018-07-21T11:36:47.267Z,29.19
2018-07-21T11:39:17.333Z,29.33
2018-07-21T11:41:47.211Z,29.44
2018-07-21T11:44:16.986Z,29.53
2018-07-21T11:46:47.082Z,29.61
2018-07-21T11:49:17.063Z,29.70
2018-07-21T11:51:47.060Z,29.81
2018-07-21T11:54:16.896Z,29.91
2018-07-21T11:56:47.070Z,30.02
2018-07-21T11:59:17.088Z,30.15
2018-07-21T12:01:47.557Z,30.27
2018-07-21T12:04:18.291Z,30.36
2018-07-21T12:06:48.245Z,30.45
2018-07-21T12:09:18.278Z,30.54
2018-07-21T12:11:48.392Z,30.62
2018-07-21T12:14:18.056Z,30.70
2018-07-21T12:16:48.083Z,30.76
2018-07-21T12:19:18.957Z,30.81
2018-07-21T12:21:49.441Z,30.89
2018-07-21T12:24:19.449Z,30.97
2018-07-21T12:26:49.368Z,31.05
2018-07-21T12:29:19.268Z,31.11
2018-07-21T12:31:49.588Z,31.15
2018-07-21T12:34:19.651Z,31.19
2018-07-21T12:36:49.669Z,31.22
2018-07-21T12:39:19.618Z,31.28
2018-07-21T12:41:49.533Z,31.33
2018-07-21T12:44:19.508Z,31.42
2018-07-21T12:46:49.384Z,31.51
2018-07-21T12:49:19.259Z,31.61
2018-07-21T12:51:49.094Z,31.71
2018-07-21T12:54:18.979Z,31.79
2018-07-21T12:56:49.417Z,31.87
2018-07-21T12:59:19.207Z,31.95
2018-07-21T13:01:49.097Z,32.02
2018-07-21T13:04:19.189Z,32.07
2018-07-21T13:06:49.562Z,32.12
2018-07-21T13:09:19.608Z,32.17
2018-07-21T13:11:49.635Z,32.24
2018-07-21T13:14:19.553Z,32.33
2018-07-21T13:16:49.935Z,32.41
2018-07-21T13:19:20.035Z,32.50
2018-07-21T13:21:50.016Z,32.53
2018-07-21T13:24:19.916Z,32.54
2018-07-21T13:26:50.148Z,32.52
2018-07-21T13:29:19.978Z,32.53
2018-07-21T13:31:50.304Z,32.54
2018-07-21T13:34:20.358Z,32.56
2018-07-21T13:36:50.460Z,32.61
2018-07-21T13:39:20.351Z,32.62
2018-07-21T13:41:50.501Z,32.60
2018-07-21T13:44:21.329Z,32.57
2018-07-21T13:46:51.478Z,32.58
2018-07-21T13:49:21.285Z,32.56
2018-07-21T13:51:51.195Z,32.57
2018-07-21T13:54:21.416Z,32.56
2018-07-21T13:56:52.754Z,32.55
2018-07-21T13:59:22.813Z,32.51
2018-07-21T14:01:52.942Z,32.51
2018-07-21T14:04:22.864Z,32.52
2018-07-21T14:06:52.770Z,32.54
2018-07-21T14:09:22.705Z,32.52
2018-07-21T14:11:52.729Z,32.53
2018-07-21T14:14:22.584Z,32.52
2018-07-21T14:16:53.125Z,32.46
2018-07-21T14:19:23.267Z,32.42
2018-07-21T14:21:53.509Z,32.40
2018-07-21T14:24:23.503Z,32.41
2018-07-21T14:26:53.387Z,32.43
2018-07-21T14:29:23.443Z,32.42
2018-07-21T14:31:53.423Z,32.40
2018-07-21T14:34:23.410Z,32.37
2018-07-21T14:36:53.444Z,32.31
2018-07-21T14:39:23.404Z,32.27
2018-07-21T14:41:53.788Z,32.22
2018-07-21T14:44:24.332Z,32.16
2018-07-21T14:46:54.448Z,32.09
2018-07-21T14:49:24.454Z,32.02
2018-07-21T14:51:54.388Z,31.95
2018-07-21T14:54:24.442Z,31.89
2018-07-21T14:56:54.427Z,31.82
2018-07-21T14:59:24.338Z,31.76
2018-07-21T15:01:54.616Z,31.68
2018-07-21T15:04:24.862Z,31.46
2018-07-21T15:06:54.850Z,31.16
2018-07-21T15:09:25.292Z,30.90
2018-07-21T15:11:55.520Z,30.66
2018-07-21T15:14:25.690Z,30.44
2018-07-21T15:16:56.497Z,30.22
2018-07-21T15:19:26.367Z,29.99
2018-07-21T15:21:56.072Z,29.69
2018-07-21T15:24:26.018Z,29.41
2018-07-21T15:26:56.613Z,29.22
2018-07-21T15:29:26.548Z,28.97
2018-07-21T15:31:56.690Z,28.74
2018-07-21T15:34:27.083Z,28.32
2018-07-21T15:36:57.700Z,27.70
2018-07-21T15:39:27.798Z,27.15
2018-07-21T15:41:57.645Z,26.75
2018-07-21T15:44:27.514Z,26.53
2018-07-21T15:46:57.651Z,26.38
2018-07-21T15:49:27.637Z,26.25
2018-07-21T15:51:58.231Z,26.13
2018-07-21T15:54:28.131Z,26.01
2018-07-21T15:56:58.136Z,25.86
2018-07-21T15:59:28.195Z,25.77
2018-07-21T16:01:58.308Z,25.71
2018-07-21T16:04:28.563Z,25.64
2018-07-21T16:06:58.569Z,25.59
2018-07-21T16:09:28.521Z,25.55
2018-07-21T16:11:58.513Z,25.50
2018-07-21T16:14:28.243Z,25.44
2018-07-21T16:16:58.083Z,25.36
2018-07-21T16:19:27.882Z,25.29
2018-07-21T16:21:58.138Z,25.20
2018-07-21T16:24:28.005Z,25.12
2018-07-21T16:26:58.398Z,25.05
2018-07-21T16:29:28.214Z,25.01
2018-07-21T16:31:58.386Z,24.99
2018-07-21T16:34:28.221Z,24.98
2018-07-21T16:36:58.306Z,24.97
2018-07-21T16:39:28.677Z,24.95
2018-07-21T16:41:58.887Z,24.90
2018-07-21T16:44:28.920Z,24.82
2018-07-21T16:46:59.050Z,24.74
2018-07-21T16:49:29.398Z,24.67
2018-07-21T16:51:59.564Z,24.59
2018-07-21T16:54:29.498Z,24.53
2018-07-21T16:56:59.598Z,24.49
2018-07-21T16:59:29.632Z,24.46
2018-07-21T17:01:59.638Z,24.44
2018-07-21T17:04:29.871Z,24.42
2018-07-21T17:06:59.808Z,24.35
2018-07-21T17:09:29.846Z,24.29
2018-07-21T17:11:59.969Z,24.26
2018-07-21T17:14:30.062Z,24.23
2018-07-21T17:17:05.301Z,24.22
2018-07-21T17:19:35.359Z,24.20
2018-07-21T17:22:05.478Z,24.18
2018-07-21T17:24:35.327Z,24.19
2018-07-21T17:27:05.422Z,24.16
2018-07-21T17:29:36.271Z,24.16
2018-07-21T17:32:06.600Z,24.16
2018-07-21T17:34:36.706Z,24.15
2018-07-21T17:37:08.678Z,24.15
2018-07-21T17:39:38.497Z,24.12
2018-07-21T17:42:08.569Z,24.08
2018-07-21T17:44:38.680Z,24.07
2018-07-21T17:47:09.246Z,24.05
2018-07-21T17:49:39.696Z,24.03
2018-07-21T17:52:10.014Z,23.99
2018-07-21T17:54:40.788Z,23.95
2018-07-21T17:57:10.699Z,23.92
2018-07-21T17:59:40.487Z,23.90
2018-07-21T18:02:10.315Z,23.84
2018-07-21T18:04:40.199Z,23.82
2018-07-21T18:07:10.825Z,23.78
2018-07-21T18:09:41.723Z,23.76
2018-07-21T18:12:11.620Z,23.75
2018-07-21T18:14:41.827Z,23.76
2018-07-21T18:17:11.992Z,23.77
2018-07-21T18:19:41.961Z,23.79
2018-07-21T18:22:12.068Z,23.80
2018-07-21T18:24:41.986Z,23.82
2018-07-21T18:27:11.902Z,23.83
2018-07-21T18:29:42.713Z,23.83
2018-07-21T18:32:12.752Z,23.80
2018-07-21T18:34:42.582Z,23.80
2018-07-21T18:37:12.737Z,23.79
2018-07-21T18:39:43.169Z,23.75
2018-07-21T18:42:13.380Z,23.77
2018-07-21T18:44:43.492Z,23.76
2018-07-21T18:47:13.414Z,23.78
2018-07-21T18:49:43.498Z,23.80
2018-07-21T18:52:13.357Z,23.80
2018-07-21T18:54:44.396Z,23.82
2018-07-21T18:57:14.517Z,23.83
2018-07-21T18:59:44.534Z,23.82
2018-07-21T19:02:14.516Z,23.83
2018-07-21T19:04:44.634Z,23.83
2018-07-21T19:07:14.731Z,23.84
2018-07-21T19:09:44.839Z,23.85
2018-07-21T19:12:19.817Z,23.85
2018-07-21T19:14:49.980Z,23.86
2018-07-21T19:17:20.043Z,23.88
2018-07-21T19:19:54.981Z,23.89
2018-07-21T19:22:25.137Z,23.89
2018-07-21T19:24:55.222Z,23.88
2018-07-21T19:27:31.515Z,23.88
2018-07-21T19:30:02.579Z,23.89
2018-07-21T19:32:38.021Z,23.88
2018-07-21T19:35:14.495Z,23.88
2018-07-21T19:37:49.532Z,23.87
2018-07-21T19:40:20.700Z,23.88
2018-07-21T19:42:50.815Z,23.88
2018-07-21T19:45:21.674Z,23.88
2018-07-21T19:47:52.605Z,23.88
2018-07-21T19:50:22.945Z,23.89
2018-07-21T19:52:52.851Z,23.91
2018-07-21T19:55:23.080Z,23.92
2018-07-21T19:57:53.135Z,23.92
2018-07-21T20:00:23.136Z,23.94
2018-07-21T20:02:53.285Z,23.95
2018-07-21T20:05:23.373Z,23.95
2018-07-21T20:07:53.585Z,23.95
2018-07-21T20:10:23.592Z,23.94
2018-07-21T20:12:53.719Z,23.93
2018-07-21T20:15:23.853Z,23.91
2018-07-21T20:17:53.965Z,23.91
2018-07-21T20:20:23.848Z,23.89
2018-07-21T20:22:53.709Z,23.86
2018-07-21T20:25:24.030Z,23.85
2018-07-21T20:27:54.050Z,23.85
2018-07-21T20:30:24.360Z,23.84
2018-07-21T20:32:54.382Z,23.83
2018-07-21T20:35:24.426Z,23.80
2018-07-21T20:37:54.532Z,23.78
2018-07-21T20:40:24.734Z,23.74
2018-07-21T20:42:54.575Z,23.71
2018-07-21T20:45:24.637Z,23.68
2018-07-21T20:47:54.663Z,23.65
2018-07-21T20:50:24.623Z,23.62
2018-07-21T20:52:55.264Z,23.55
2018-07-21T20:55:25.253Z,23.50
2018-07-21T20:57:55.806Z,23.44
2018-07-21T21:00:25.766Z,23.39
2018-07-21T21:02:55.831Z,23.35
2018-07-21T21:05:25.842Z,23.31
2018-07-21T21:07:55.831Z,23.25
2018-07-21T21:10:27.000Z,23.21
2018-07-21T21:12:57.042Z,23.17
2018-07-21T21:15:27.026Z,23.14
2018-07-21T21:17:57.580Z,23.11
2018-07-21T21:20:27.455Z,23.08
2018-07-21T21:22:57.283Z,23.06
2018-07-21T21:25:27.052Z,23.06
2018-07-21T21:27:57.016Z,23.05
2018-07-21T21:30:28.323Z,23.04
2018-07-21T21:32:58.311Z,23.06
2018-07-21T21:35:28.270Z,23.04
2018-07-21T21:37:58.332Z,23.03
2018-07-21T21:40:28.351Z,23.04
2018-07-21T21:42:58.628Z,23.04
2018-07-21T21:45:28.348Z,23.03
2018-07-21T21:47:58.385Z,23.04
2018-07-21T21:50:28.266Z,23.04
2018-07-21T21:52:58.132Z,23.04
2018-07-21T21:55:29.001Z,23.06
2018-07-21T21:58:05.185Z,23.06
2018-07-21T22:00:50.919Z,23.06
2018-07-21T22:03:21.432Z,23.05
2018-07-21T22:05:51.788Z,23.05
2018-07-21T22:08:22.092Z,23.06
2018-07-21T22:10:52.048Z,23.08
2018-07-21T22:13:22.136Z,23.08
2018-07-21T22:15:51.908Z,23.08
2018-07-21T22:18:21.917Z,23.09
2018-07-21T22:20:51.980Z,23.09
2018-07-21T22:23:22.759Z,23.09
2018-07-21T22:25:53.427Z,23.08
2018-07-21T22:28:23.459Z,23.07
2018-07-21T22:30:53.897Z,23.06
2018-07-21T22:33:23.927Z,23.04
2018-07-21T22:35:53.956Z,23.02
2018-07-21T22:38:23.987Z,22.97
2018-07-21T22:40:53.952Z,22.94
2018-07-21T22:43:23.957Z,22.92
2018-07-21T22:45:53.895Z,22.92
2018-07-21T22:48:23.906Z,22.91
2018-07-21T22:50:53.820Z,22.89
2018-07-21T22:53:23.651Z,22.86
2018-07-21T22:55:53.592Z,22.84
2018-07-21T22:58:23.564Z,22.82
2018-07-21T23:00:54.001Z,22.79
2018-07-21T23:03:24.719Z,22.77
2018-07-21T23:05:55.574Z,22.74
2018-07-21T23:08:25.977Z,22.72
2018-07-21T23:10:56.012Z,22.69
2018-07-21T23:13:25.834Z,22.66
2018-07-21T23:15:55.857Z,22.63
2018-07-21T23:18:25.741Z,22.58
2018-07-21T23:20:55.637Z,22.55
2018-07-21T23:23:26.148Z,22.53
2018-07-21T23:25:56.250Z,22.51
2018-07-21T23:28:26.591Z,22.51
2018-07-21T23:30:56.468Z,22.51
2018-07-21T23:33:26.465Z,22.50
2018-07-21T23:35:56.412Z,22.50
2018-07-21T23:38:26.756Z,22.49
2018-07-21T23:40:57.421Z,22.48
2018-07-21T23:43:27.508Z,22.47
2018-07-21T23:45:57.490Z,22.46
2018-07-21T23:48:27.372Z,22.44
2018-07-21T23:50:57.499Z,22.41
2018-07-21T23:53:27.290Z,22.37
2018-07-21T23:55:57.377Z,22.34
2018-07-21T23:58:27.239Z,22.31
